LDPL Informações do Aeroporto

Informações da Pista
Pista 09 Comprimento 9678 ft Largura 148 ft
Elevação 169 ft Limite 0 ft Heading 88
Pista 27 Comprimento 9678 ft Largura 148 ft
Elevação 274 ft Limite 0 ft Heading 268
Frequências do Aeroporto
Tipo APP Nome APP Frequência 118.4 MHZ
Tipo TWR Nome TWR Frequência 120 MHZ
Navaids do Aeroporto
Tipo NDB Nome Cres Frequência 433 KHZ
Tipo NDB Nome Kavran Frequência 265 KHZ
Tipo NDB Nome Pula Frequência 352 KHZ
Tipo VOR-DME Nome Pula Frequência 111250 KHZ
Informações meteorológicas do aeroporto e NOTAM
ADDS - METARS form results

(1406 UTC 25 June 2019)
Data provider http://aviationweather.gov/metar/data/
 
METAR text: LDPL 251400Z 30008KT CAVOK 30/19 Q1021 NOSIG
Conditions at: LDPL (PULA , HR) observed 1400 UTC 25 June 2019
Temperature: 30.0°C (86°F)
Dewpoint: 19.0°C (66°F) [RH = 52%]
Pressure (altimeter): 30.15 inches Hg (1021.0 mb)
Winds: from the WNW (300 degrees) at 9 MPH (8 knots; 4.1 m/s)
Visibility: 6 or more miles (10+ km)
Ceiling: ceiling and visibility are OK
Clouds: unknown
Weather: no significant weather observed at this time

METAR text: LDPL 251330Z 28008KT CAVOK 30/19 Q1021 NOSIG
Conditions at: LDPL (PULA , HR) observed 1330 UTC 25 June 2019
Temperature: 30.0°C (86°F)
Dewpoint: 19.0°C (66°F) [RH = 52%]
Pressure (altimeter): 30.15 inches Hg (1021.0 mb)
Winds: from the W (280 degrees) at 9 MPH (8 knots; 4.1 m/s)
Visibility: 6 or more miles (10+ km)
Ceiling: ceiling and visibility are OK
Clouds: unknown
Weather: no significant weather observed at this time

Forecast for: LDPL (PULA , HR)
Text: TAF LDPL 251125Z 2512/2612 09008KT 9999 FEW045 TX32/2513Z TN22/2603Z
Forecast period: 1200 UTC 25 June 2019 to 1200 UTC 26 June 2019
Forecast type: FROM: standard forecast or significant change
Winds: from the E (90 degrees) at 9 MPH (8 knots; 4.1 m/s)
Visibility: 6 or more miles 10+ km)
Ceiling: at least 12,000 feet AGL
Clouds: few clouds at 4500 feet AGL
Weather: no significant weather forecast for this period
Text: PROB40
Forecast period: 1200 to 1600 UTC 25 June 2019
Forecast type: TEMPORARY: The following changes expected for less than half the time period
Winds: from the W (270 degrees) at 9 MPH (8 knots; 4.1 m/s)
Visibility: missing
Ceiling: unknown
Clouds: missing
Weather: no significant weather forecast for this period